Time;durP1;ratioP1;P1;durP2;ratioP2;P2;SDS_P1;SDS_P2;PMS_P1;PMS_P2;Temp;Humidity;BMP_temperature;BMP_pressure;BME280_temperature;BME280_humidity;BME280_pressure;Samples;Min_cycle;Max_cycle;Signal;HPM_P1;HPM_P2
2022/06/17 00:00:12;;;;;;;7.32;2.95;;;;;;;18.45;53.38;99743.03;5226337;28;20198;-72
2022/06/17 00:03:02;;;;;;;10.13;3.35;;;;;;;18.41;53.50;99744.38;5224706;28;20049;-71
2022/06/17 00:05:59;;;;;;;6.35;3.08;;;;;;;18.46;53.43;99733.97;5211184;28;20053;-71
2022/06/17 00:08:52;;;;;;;7.80;3.40;;;;;;;18.30;53.32;99730.34;5226192;28;20056;-72
2022/06/17 00:11:42;;;;;;;7.60;3.45;;;;;;;18.13;53.69;99752.09;5209880;28;20092;-72
2022/06/17 00:15:11;;;;;;;8.23;3.10;;;;;;;18.13;53.95;99755.59;5225677;28;20055;-74
2022/06/17 00:17:55;;;;;;;10.23;3.28;;;;;;;18.30;52.94;99741.09;5225764;28;20051;-72
2022/06/17 00:20:47;;;;;;;6.93;3.05;;;;;;;18.16;53.83;99754.41;5226047;28;20462;-72
2022/06/17 00:23:37;;;;;;;6.07;3.03;;;;;;;18.11;54.14;99743.34;5223650;28;20431;-71
2022/06/17 00:26:28;;;;;;;4.05;2.83;;;;;;;18.08;54.65;99748.06;5225451;28;20049;-71
2022/06/17 00:29:21;;;;;;;4.10;2.63;;;;;;;18.12;53.61;99761.16;5225037;28;20061;-72
2022/06/17 00:32:11;;;;;;;5.03;2.80;;;;;;;17.95;53.42;99733.53;5225358;28;20041;-73
2022/06/17 00:35:02;;;;;;;4.05;2.63;;;;;;;18.20;52.52;99745.84;5223936;28;20052;-71
2022/06/17 00:37:53;;;;;;;5.18;2.88;;;;;;;17.84;53.53;99743.63;5225605;28;20489;-71
2022/06/17 00:40:44;;;;;;;6.97;2.95;;;;;;;18.05;53.18;99766.38;5224238;28;20056;-72
2022/06/17 00:43:37;;;;;;;6.65;3.05;;;;;;;18.11;52.95;99772.88;5223900;28;20107;-72
2022/06/17 00:46:34;;;;;;;5.55;2.80;;;;;;;18.04;53.15;99775.41;5223670;28;20509;-72
2022/06/17 00:50:03;;;;;;;4.53;2.80;;;;;;;17.91;53.61;99775.13;5225775;28;20311;-72
2022/06/17 00:53:13;;;;;;;5.50;2.70;;;;;;;17.61;54.57;99780.19;5223686;28;20158;-73
2022/06/17 00:56:11;;;;;;;3.38;2.42;;;;;;;17.77;54.84;99784.72;5225408;28;20055;-72
2022/06/17 00:59:07;;;;;;;3.25;2.50;;;;;;;17.75;54.53;99778.69;5210347;28;20053;-72
2022/06/17 01:02:04;;;;;;;3.92;2.67;;;;;;;17.82;53.72;99777.84;5209993;28;20127;-72
2022/06/17 01:05:00;;;;;;;4.65;2.67;;;;;;;17.76;53.76;99781.19;5210359;28;20060;-72
2022/06/17 01:07:59;;;;;;;5.05;2.63;;;;;;;17.60;54.55;99760.56;5223975;28;20128;-73
2022/06/17 01:10:49;;;;;;;6.45;2.70;;;;;;;17.46;55.07;99768.50;5223957;28;20063;-73
2022/06/17 01:13:40;;;;;;;3.95;2.88;;;;;;;17.31;55.93;99762.97;5223811;28;20544;-72
2022/06/17 01:16:35;;;;;;;5.90;2.60;;;;;;;17.30;55.44;99761.28;5223783;28;20135;-72
2022/06/17 01:19:43;;;;;;;4.32;2.80;;;;;;;17.06;55.41;99762.13;5223692;28;20131;-73
2022/06/17 01:22:52;;;;;;;3.78;2.50;;;;;;;17.11;56.00;99763.28;5223569;28;20488;-72
2022/06/17 01:25:45;;;;;;;6.45;2.78;;;;;;;17.20;55.82;99753.41;5223514;28;20111;-72
2022/06/17 01:28:36;;;;;;;3.13;2.55;;;;;;;17.25;56.11;99753.75;5224604;28;20060;-73
2022/06/17 01:31:27;;;;;;;2.85;2.58;;;;;;;17.31;54.70;99742.34;5223818;28;20079;-72
2022/06/17 01:34:18;;;;;;;6.85;2.95;;;;;;;17.16;54.92;99714.56;5209495;28;20067;-73
2022/06/17 01:37:10;;;;;;;4.93;3.20;;;;;;;17.13;55.09;99739.84;5224461;28;20061;-72
2022/06/17 01:40:01;;;;;;;4.15;2.50;;;;;;;17.23;55.00;99737.00;5223463;28;20060;-72
2022/06/17 01:42:51;;;;;;;3.83;2.50;;;;;;;16.99;55.58;99737.03;5223200;28;20162;-72
2022/06/17 01:45:48;;;;;;;3.25;2.50;;;;;;;17.21;55.26;99748.88;5223319;28;20343;-72
2022/06/17 01:48:47;;;;;;;3.10;2.53;;;;;;;17.07;55.53;99737.00;5223463;28;20517;-73
2022/06/17 01:51:42;;;;;;;4.45;2.83;;;;;;;16.96;55.87;99735.50;5223283;28;20064;-72
2022/06/17 01:55:00;;;;;;;4.03;2.75;;;;;;;16.90;56.36;99757.59;5222847;28;20048;-72
2022/06/17 01:58:17;;;;;;;6.88;3.15;;;;;;;17.00;56.82;99757.44;5222975;28;20426;-72
2022/06/17 02:01:09;;;;;;;5.57;2.97;;;;;;;16.68;57.38;99757.19;5223264;28;20537;-72
2022/06/17 02:04:23;;;;;;;7.05;3.40;;;;;;;16.66;57.21;99758.38;5222667;28;20055;-72
2022/06/17 02:07:26;;;;;;;4.35;3.17;;;;;;;16.45;58.47;99750.78;5222878;28;20430;-72
2022/06/17 02:10:19;;;;;;;8.82;2.75;;;;;;;16.39;58.27;99736.22;5222659;28;20060;-72
2022/06/17 02:13:12;;;;;;;10.18;3.08;;;;;;;16.59;57.98;99750.16;5222747;28;20094;-72
2022/06/17 02:16:26;;;;;;;8.95;2.83;;;;;;;16.48;57.63;99749.63;5222281;28;20052;-73
2022/06/17 02:19:24;;;;;;;4.13;3.08;;;;;;;16.39;58.04;99752.28;5222363;28;20060;-72
2022/06/17 02:22:24;;;;;;;6.70;2.83;;;;;;;16.53;57.14;99752.66;5222102;28;20178;-73
2022/06/17 02:25:31;;;;;;;3.75;3.03;;;;;;;16.37;57.84;99756.94;5222263;28;20072;-72
2022/06/17 02:28:22;;;;;;;5.65;2.75;;;;;;;16.25;58.01;99733.31;5222567;28;20178;-73
2022/06/17 02:31:16;;;;;;;3.05;2.40;;;;;;;16.26;58.00;99741.19;5223550;28;20306;-72
2022/06/17 02:34:09;;;;;;;6.40;3.00;;;;;;;16.18;58.31;99750.00;5223511;28;20051;-72
2022/06/17 02:37:09;;;;;;;5.32;2.88;;;;;;;16.19;58.84;99757.06;5222134;28;20049;-73
2022/06/17 02:40:03;;;;;;;5.85;2.88;;;;;;;16.30;57.72;99758.59;5223558;28;20279;-72
2022/06/17 02:42:57;;;;;;;9.07;3.20;;;;;;;16.15;58.49;99757.53;5222184;28;20577;-72
2022/06/17 02:45:57;;;;;;;6.93;3.45;;;;;;;16.07;59.33;99760.19;5222525;28;20095;-72
2022/06/17 02:48:54;;;;;;;4.45;3.10;;;;;;;16.07;58.59;99752.16;5222230;28;20071;-71
2022/06/17 02:51:45;;;;;;;9.52;3.15;;;;;;;16.38;57.92;99763.13;5222381;28;20454;-73
2022/06/17 02:54:40;;;;;;;5.13;3.15;;;;;;;16.23;58.31;99760.25;5222236;28;20049;-72
2022/06/17 02:57:31;;;;;;;4.72;2.75;;;;;;;15.95;58.93;99744.41;5222918;28;20055;-72
2022/06/17 03:00:21;;;;;;;5.75;3.13;;;;;;;15.86;59.56;99748.06;5223046;28;20124;-72
2022/06/17 03:03:15;;;;;;;3.95;2.90;;;;;;;16.05;59.15;99762.16;5222557;28;20053;-72
2022/06/17 03:06:18;;;;;;;7.30;2.90;;;;;;;16.09;58.78;99766.19;5222489;28;20052;-72
2022/06/17 03:09:21;;;;;;;5.47;3.47;;;;;;;15.87;59.26;99768.44;5222359;28;20430;-71
2022/06/17 03:12:28;;;;;;;6.60;3.20;;;;;;;15.79;59.63;99756.84;5221442;28;20415;-71
2022/06/17 03:15:19;;;;;;;4.35;3.05;;;;;;;15.81;60.06;99769.06;5221323;28;20064;-71
2022/06/17 03:18:11;;;;;;;5.00;3.25;;;;;;;15.82;59.90;99784.09;5221948;28;20064;-72
2022/06/17 03:21:02;;;;;;;10.05;3.53;;;;;;;15.93;59.77;99796.41;5221507;28;20056;-70
2022/06/17 03:24:11;;;;;;;7.45;3.22;;;;;;;15.73;60.00;99796.59;5221525;28;20210;-71
2022/06/17 03:27:09;;;;;;;4.82;3.65;;;;;;;15.74;60.59;99786.75;5223698;28;20107;-72
2022/06/17 03:30:01;;;;;;;6.80;3.92;;;;;;;15.73;60.55;99785.06;5216175;28;20170;-71
2022/06/17 03:33:26;;;;;;;9.13;4.25;;;;;;;15.43;61.70;99794.31;5225577;28;20049;-71
2022/06/17 03:36:34;;;;;;;7.03;4.15;;;;;;;15.24;62.40;99785.53;5226197;28;20078;-70
2022/06/17 03:39:33;;;;;;;6.70;4.15;;;;;;;15.60;61.73;99789.97;5225366;28;20053;-71
2022/06/17 03:42:29;;;;;;;11.65;4.30;;;;;;;15.61;62.03;99794.31;5210450;28;20057;-71
2022/06/17 03:45:28;;;;;;;6.80;3.70;;;;;;;15.48;62.28;99797.38;5224721;28;20056;-71
2022/06/17 03:48:33;;;;;;;5.03;3.95;;;;;;;15.83;61.77;99799.19;5224941;28;20079;-72
2022/06/17 03:51:26;;;;;;;7.00;4.00;;;;;;;15.62;62.10;99809.34;5224658;28;20055;-71
2022/06/17 03:54:18;;;;;;;5.38;3.85;;;;;;;15.49;61.97;99813.25;5224942;28;20064;-71
2022/06/17 03:57:10;;;;;;;6.68;4.45;;;;;;;15.44;62.46;99814.75;5225042;28;20107;-71
2022/06/17 04:00:01;;;;;;;6.57;3.90;;;;;;;15.59;61.88;99828.38;5224715;28;20657;-71
2022/06/17 04:02:54;;;;;;;13.48;4.32;;;;;;;15.74;62.18;99821.50;5212511;28;20132;-72
2022/06/17 04:05:50;;;;;;;7.18;3.97;;;;;;;15.90;61.54;99839.50;5224975;28;20052;-72
2022/06/17 04:08:50;;;;;;;5.63;3.80;;;;;;;15.75;61.41;99831.19;5225204;28;20107;-72
2022/06/17 04:11:44;;;;;;;8.77;4.60;;;;;;;15.91;61.74;99847.34;5210484;28;20132;-72
2022/06/17 04:14:48;;;;;;;6.85;3.92;;;;;;;15.92;61.27;99846.34;5224746;28;20041;-72
2022/06/17 04:17:44;;;;;;;5.18;3.65;;;;;;;15.81;61.54;99843.94;5224517;28;20083;-71
2022/06/17 04:20:35;;;;;;;6.55;4.82;;;;;;;15.89;62.29;99849.38;5224544;28;20127;-72
2022/06/17 04:23:33;;;;;;;19.27;5.18;;;;;;;16.03;61.53;99853.28;5223923;28;20037;-72
2022/06/17 04:26:34;;;;;;;12.85;4.78;;;;;;;16.05;62.26;99847.78;5224397;28;20447;-72
2022/06/17 04:29:54;;;;;;;10.48;4.97;;;;;;;16.12;61.74;99846.13;5211760;28;20052;-71
2022/06/17 04:32:48;;;;;;;16.88;5.15;;;;;;;16.18;62.08;99849.00;5210128;28;20048;-72
2022/06/17 04:35:38;;;;;;;13.00;5.68;;;;;;;16.27;61.74;99849.91;5224013;28;20477;-72
2022/06/17 04:38:35;;;;;;;8.32;4.70;;;;;;;16.25;62.20;99825.13;5223090;28;20080;-72
2022/06/17 04:41:52;;;;;;;14.98;5.00;;;;;;;16.38;61.61;99851.47;5224164;28;20106;-72
2022/06/17 04:44:51;;;;;;;9.88;4.75;;;;;;;16.29;61.94;99855.09;5223985;28;20049;-72
2022/06/17 04:47:43;;;;;;;13.52;5.53;;;;;;;16.59;62.52;99865.28;5224078;28;20419;-72
2022/06/17 04:50:43;;;;;;;7.63;4.72;;;;;;;16.59;62.58;99862.59;5223838;28;20431;-71
2022/06/17 04:53:33;;;;;;;17.35;5.63;;;;;;;16.55;62.06;99838.97;5223605;28;20106;-72
2022/06/17 04:56:47;;;;;;;11.27;5.43;;;;;;;17.07;61.56;99865.63;5208893;28;20064;-72
2022/06/17 04:59:51;;;;;;;14.50;5.40;;;;;;;16.98;60.47;99864.75;5223488;28;20061;-71
2022/06/17 05:02:41;;;;;;;11.38;5.00;;;;;;;16.83;61.75;99850.34;5223416;28;20056;-71
2022/06/17 05:05:47;;;;;;;11.38;5.43;;;;;;;16.92;60.20;99865.44;5223422;28;20064;-71
2022/06/17 05:08:44;;;;;;;7.38;5.00;;;;;;;16.94;60.13;99879.47;5224593;28;20056;-71
2022/06/17 05:11:39;;;;;;;11.80;5.50;;;;;;;16.93;60.27;99876.97;5209694;28;20057;-71
2022/06/17 05:14:44;;;;;;;8.68;5.03;;;;;;;17.25;58.59;99884.22;5209551;28;20130;-71
2022/06/17 05:17:34;;;;;;;;;;;;;;;17.31;61.66;99887.09;5223683;28;20049;-72
2022/06/17 05:20:26;;;;;;;13.77;6.13;;;;;;;17.33;61.03;99874.38;5223108;28;19936;-71
2022/06/17 05:23:17;;;;;;;10.60;5.93;;;;;;;17.53;60.97;99884.78;5222579;28;20127;-71
2022/06/17 05:26:10;;;;;;;17.50;6.32;;;;;;;17.43;60.79;99887.63;5223208;28;20427;-72
2022/06/17 05:29:02;;;;;;;15.38;5.78;;;;;;;17.58;60.15;99898.50;5223457;28;20048;-72
2022/06/17 05:31:56;;;;;;;;;;;;;;;17.57;59.72;99904.88;5223173;28;20099;-71
2022/06/17 05:34:54;;;;;;;32.08;6.18;;;;;;;17.58;59.83;99877.91;5220609;28;19927;-71
2022/06/17 05:37:44;;;;;;;40.63;6.78;;;;;;;17.94;58.90;99888.31;5223625;28;20186;-71
2022/06/17 05:40:37;;;;;;;24.90;6.75;;;;;;;18.11;59.40;99897.16;5222602;28;20056;-72
2022/06/17 05:43:27;;;;;;;30.13;6.28;;;;;;;18.17;58.02;99907.22;5222870;28;20155;-72
2022/06/17 05:46:18;;;;;;;30.40;6.55;;;;;;;18.28;57.88;99900.69;5222521;28;20427;-74
2022/06/17 05:49:29;;;;;;;45.45;6.45;;;;;;;18.33;56.92;99905.53;5221959;28;20545;-73
2022/06/17 05:52:29;;;;;;;27.98;6.00;;;;;;;18.38;57.97;99912.06;5193275;28;20058;-72
2022/06/17 05:55:36;;;;;;;31.60;5.90;;;;;;;18.57;55.94;99912.66;5190474;28;20059;-73
2022/06/17 05:58:26;;;;;;;28.55;5.80;;;;;;;18.60;55.30;99909.63;5193490;28;20074;-72
2022/06/17 06:01:17;;;;;;;28.10;5.28;;;;;;;18.71;55.52;99911.97;5222358;28;20190;-73
2022/06/17 06:04:07;;;;;;;29.42;5.60;;;;;;;18.68;55.22;99891.66;5221997;28;20060;-73
2022/06/17 06:06:59;;;;;;;25.85;4.80;;;;;;;18.73;55.25;99916.16;5222842;28;20577;-73
2022/06/17 06:09:51;;;;;;;;;;;;;;;19.02;54.85;99915.53;5223113;28;20517;-73
2022/06/17 06:12:56;;;;;;;20.92;4.63;;;;;;;18.89;55.62;99917.13;5223179;28;19943;-72
2022/06/17 06:15:55;;;;;;;13.35;4.10;;;;;;;19.04;54.26;99912.69;5209078;28;20079;-72
2022/06/17 06:18:53;;;;;;;14.07;4.63;;;;;;;19.23;53.16;99908.69;5222278;28;20198;-72
2022/06/17 06:21:46;;;;;;;11.95;3.53;;;;;;;19.00;54.68;99895.22;5219671;28;20063;-72
2022/06/17 06:24:36;;;;;;;13.13;4.40;;;;;;;19.39;52.92;99897.00;5221140;28;20132;-74
2022/06/17 06:27:26;;;;;;;18.15;3.88;;;;;;;19.82;51.54;99900.06;5213014;28;20177;-72
2022/06/17 06:30:24;;;;;;;20.23;3.95;;;;;;;19.97;50.51;99900.09;5217925;28;20092;-72
2022/06/17 06:33:16;;;;;;;26.48;3.10;;;;;;;20.17;50.25;99899.41;5221790;28;20107;-72
2022/06/17 06:36:06;;;;;;;4.35;2.50;;;;;;;20.09;49.33;99895.94;5221119;28;20074;-72
2022/06/17 06:38:57;;;;;;;7.65;2.67;;;;;;;20.37;48.76;99898.84;5220069;28;20103;-73
2022/06/17 06:41:47;;;;;;;6.05;2.25;;;;;;;20.31;48.16;99894.22;5219857;28;20061;-71
2022/06/17 06:44:38;;;;;;;13.43;2.30;;;;;;;20.68;47.63;99896.00;5220376;28;20045;-74
2022/06/17 06:47:44;;;;;;;8.65;2.60;;;;;;;20.74;45.94;99905.19;5220425;28;20086;-72
2022/06/17 06:50:45;;;;;;;9.15;2.00;;;;;;;20.80;46.41;99888.28;5222061;28;20202;-70
2022/06/17 06:53:35;;;;;;;4.40;2.35;;;;;;;21.84;44.93;99887.94;5219097;28;20427;-71
2022/06/17 06:56:25;;;;;;;5.03;2.10;;;;;;;22.79;43.46;99895.44;5220757;28;20447;-74
2022/06/17 06:59:16;;;;;;;5.38;2.42;;;;;;;23.47;43.31;99900.84;5221109;28;20045;-71
2022/06/17 07:02:08;;;;;;;4.72;2.00;;;;;;;23.14;42.63;99893.50;5205516;28;20052;-71
2022/06/17 07:04:59;;;;;;;4.05;2.00;;;;;;;24.21;40.47;99899.06;5221398;28;20096;-72
2022/06/17 07:07:49;;;;;;;6.78;2.17;;;;;;;24.37;39.69;99910.28;5222512;28;20098;-72
2022/06/17 07:10:41;;;;;;;5.32;1.90;;;;;;;24.82;38.09;99904.13;5222640;28;20064;-72
2022/06/17 07:13:31;;;;;;;3.17;1.80;;;;;;;25.97;37.97;99904.13;5208034;28;20142;-72
2022/06/17 07:16:21;;;;;;;3.00;2.10;;;;;;;26.71;38.07;99907.78;5222645;28;20446;-72
2022/06/17 07:19:16;;;;;;;3.33;2.10;;;;;;;26.88;36.06;99916.16;5221432;28;20079;-72
2022/06/17 07:22:06;;;;;;;3.58;2.03;;;;;;;26.92;35.38;99912.78;5221022;28;20056;-73
2022/06/17 07:24:56;;;;;;;9.93;1.98;;;;;;;27.74;34.19;99903.25;5222143;28;20049;-74
2022/06/17 07:27:47;;;;;;;7.75;2.10;;;;;;;28.07;34.87;99925.38;5221892;28;20124;-73
2022/06/17 07:30:38;;;;;;;5.88;2.00;;;;;;;27.69;34.03;99903.97;5222237;28;20131;-72
2022/06/17 07:33:30;;;;;;;4.13;2.08;;;;;;;27.66;33.41;99919.97;5225292;28;20060;-72
2022/06/17 07:42:39;;;;;;;7.57;2.20;;;;;;;28.28;32.23;99914.97;5222290;28;20419;-72
2022/06/17 07:45:31;;;;;;;7.07;1.85;;;;;;;28.70;35.32;99923.00;5220942;28;20053;-72
2022/06/17 07:48:21;;;;;;;5.30;2.50;;;;;;;28.61;31.72;99922.56;5221809;28;20272;-71
2022/06/17 07:51:11;;;;;;;7.53;2.10;;;;;;;28.93;33.94;99912.03;5221840;28;20136;-72
2022/06/17 07:54:02;;;;;;;6.05;2.30;;;;;;;29.31;32.87;99909.81;5221665;28;20059;-71
2022/06/17 07:56:53;;;;;;;6.05;2.05;;;;;;;29.63;33.02;99910.97;5222094;28;20158;-71
2022/06/17 07:59:43;;;;;;;6.50;2.42;;;;;;;28.79;32.66;99910.66;5222069;28;20068;-71
2022/06/17 08:02:33;;;;;;;4.72;2.20;;;;;;;28.47;32.00;99907.50;5204875;28;20146;-71
2022/06/17 08:05:24;;;;;;;6.53;2.60;;;;;;;27.61;34.11;99894.22;5220581;28;20507;-71
2022/06/17 08:08:21;;;;;;;4.60;2.30;;;;;;;29.33;33.47;99904.91;5222041;28;20422;-72
2022/06/17 08:11:12;;;;;;;5.90;2.20;;;;;;;29.81;33.39;99904.44;5220759;28;20202;-73
2022/06/17 08:14:02;;;;;;;5.25;2.15;;;;;;;28.84;33.09;99905.31;5223249;28;20055;-72
2022/06/17 08:16:52;;;;;;;4.22;2.08;;;;;;;29.33;32.15;99897.56;5225124;28;20308;-72
2022/06/17 08:19:46;;;;;;;22.85;2.53;;;;;;;28.71;34.61;99913.75;5225994;28;20538;-72
2022/06/17 08:22:37;;;;;;;6.22;2.30;;;;;;;29.62;32.52;99903.84;5225636;28;20052;-72
2022/06/17 08:25:28;;;;;;;6.00;2.28;;;;;;;29.18;33.20;99919.94;5230864;28;20514;-72
2022/06/17 08:28:19;;;;;;;4.25;2.28;;;;;;;28.46;36.29;99912.13;5225432;28;20044;-72
2022/06/17 08:31:08;;;;;;;4.78;2.20;;;;;;;28.33;33.64;99915.91;5211839;28;20513;-71
2022/06/17 08:33:59;;;;;;;8.52;2.38;;;;;;;27.54;34.99;99901.69;5225486;28;20080;-71
2022/06/17 08:36:49;;;;;;;10.00;2.65;;;;;;;28.74;33.79;99907.81;5224180;28;20095;-72
2022/06/17 08:39:40;;;;;;;6.28;2.60;;;;;;;29.59;32.86;99915.22;5225462;28;20248;-71
2022/06/17 08:42:47;;;;;;;8.30;2.38;;;;;;;30.33;31.38;99906.94;5224039;28;20132;-71
2022/06/17 08:46:08;;;;;;;2.65;2.40;;;;;;;29.14;33.12;99912.47;5225171;28;20080;-72
2022/06/17 08:49:33;;;;;;;2.65;2.28;;;;;;;30.80;30.35;99903.75;5209944;28;20060;-71
2022/06/17 08:53:02;;;;;;;4.95;2.60;;;;;;;30.80;29.43;99894.72;5224552;28;20056;-72
2022/06/17 08:56:07;;;;;;;6.82;2.65;;;;;;;31.21;30.13;99912.44;5214874;28;20502;-72
2022/06/17 08:59:07;;;;;;;5.28;2.17;;;;;;;31.45;28.74;99903.94;5225629;28;20183;-72
2022/06/17 09:02:28;;;;;;;3.88;2.30;;;;;;;31.67;31.88;99901.97;5226214;28;20075;-72
2022/06/17 09:05:51;;;;;;;3.92;2.20;;;;;;;30.15;32.80;99908.00;5211957;28;20052;-72
2022/06/17 09:09:07;;;;;;;8.02;1.60;;;;;;;31.84;28.69;99899.09;5216994;22;20068;-71
2022/06/17 09:12:48;;;;;;;4.50;1.77;;;;;;;31.83;29.70;99903.75;5195563;28;20054;-71
2022/06/17 09:15:46;;;;;;;14.48;2.22;;;;;;;31.46;29.56;99883.69;5169662;28;20045;-71
2022/06/17 09:18:46;;;;;;;5.03;2.00;;;;;;;32.22;29.17;99906.28;5204107;28;20119;-71
2022/06/17 09:21:59;;;;;;;5.85;2.22;;;;;;;32.23;28.91;99899.69;5203172;28;20068;-71
2022/06/17 09:24:51;;;;;;;7.15;1.95;;;;;;;32.30;27.64;99899.47;5201730;28;20057;-71
2022/06/17 09:27:50;;;;;;;6.30;1.95;;;;;;;32.00;27.19;99903.66;5202453;28;20057;-71
2022/06/17 09:30:49;;;;;;;4.38;2.00;;;;;;;32.48;29.66;99889.97;5201867;28;20053;-72
2022/06/17 09:33:48;;;;;;;5.32;1.60;;;;;;;32.58;28.30;99898.25;5202300;28;20045;-71
2022/06/17 09:36:48;;;;;;;8.55;1.70;;;;;;;33.04;26.97;99892.16;5202220;28;20061;-71
2022/06/17 09:39:48;;;;;;;5.90;1.70;;;;;;;33.26;27.87;99911.19;5202696;28;20530;-71
2022/06/17 09:42:43;;;;;;;3.30;1.80;;;;;;;33.25;27.67;99893.88;5201392;28;20057;-71
2022/06/17 09:45:44;;;;;;;6.20;1.80;;;;;;;32.96;26.90;99899.84;5201734;28;20072;-72
2022/06/17 09:48:44;;;;;;;2.60;1.77;;;;;;;32.89;27.31;99914.91;5201838;28;20064;-72
2022/06/17 09:51:47;;;;;;;5.55;1.90;;;;;;;32.05;26.72;99903.69;5201054;28;20053;-72
2022/06/17 09:54:53;;;;;;;3.70;1.50;;;;;;;32.26;25.87;99899.16;5201424;28;20550;-72
2022/06/17 09:57:53;;;;;;;4.75;1.52;;;;;;;32.74;27.48;99894.50;5182046;28;20061;-71
2022/06/17 10:00:48;;;;;;;4.40;1.67;;;;;;;33.02;27.88;99889.69;5194786;28;20143;-71
2022/06/17 10:03:39;;;;;;;4.65;1.60;;;;;;;33.40;27.74;99868.31;5200593;28;20111;-72
2022/06/17 10:06:42;;;;;;;3.95;1.52;;;;;;;32.62;26.15;99882.94;5201113;28;20089;-70
2022/06/17 10:09:44;;;;;;;2.20;1.38;;;;;;;32.31;25.74;99878.31;5201608;28;20505;-71
2022/06/17 10:12:58;;;;;;;3.63;1.58;;;;;;;32.27;27.82;99883.53;5200911;28;20057;-71
2022/06/17 10:19:45;;;;;;;4.90;1.60;;;;;;;32.51;25.68;99868.31;5202012;28;20188;-71
2022/06/17 10:22:51;;;;;;;3.58;1.80;;;;;;;32.65;27.04;99873.31;5200515;28;20135;-71
2022/06/17 10:25:59;;;;;;;3.35;1.40;;;;;;;32.61;30.35;99875.75;5184852;28;20104;-72
2022/06/17 10:29:39;;;;;;;3.53;1.48;;;;;;;32.62;27.88;99868.38;5200378;28;20115;-71
2022/06/17 10:32:33;;;;;;;17.73;10.85;;;;;;;33.07;30.86;99867.72;5157084;28;20129;-72
2022/06/17 10:35:30;;;;;;;4.00;2.55;;;;;;;33.27;26.86;99874.34;5156783;28;20197;-72
2022/06/17 10:38:26;;;;;;;10.50;4.90;;;;;;;33.59;26.03;99871.41;5200875;28;20415;-72
2022/06/17 10:41:16;;;;;;;16.15;8.43;;;;;;;33.17;24.67;99867.72;5200261;28;20083;-72
2022/06/17 10:44:14;;;;;;;3.35;1.65;;;;;;;32.76;28.78;99853.03;5185622;28;20050;-72
2022/06/17 10:47:17;;;;;;;1.65;1.35;;;;;;;32.42;24.97;99858.09;5200490;28;20049;-72
2022/06/17 10:50:28;;;;;;;3.00;1.23;;;;;;;32.42;25.35;99863.59;5191058;28;20041;-71
2022/06/17 10:53:31;;;;;;;4.65;1.25;;;;;;;31.84;28.57;99866.19;5200224;28;20075;-75
2022/06/17 10:56:26;;;;;;;6.00;1.40;;;;;;;31.86;26.62;99868.69;5185733;28;20086;-75
2022/06/17 10:59:30;;;;;;;7.88;1.90;;;;;;;31.90;25.14;99861.59;5200788;28;20060;-70
2022/06/17 11:02:21;;;;;;;2.42;1.10;;;;;;;31.69;23.37;99866.91;5185767;28;20049;-75
2022/06/17 11:05:11;;;;;;;4.32;1.35;;;;;;;31.55;25.20;99854.72;5186091;28;20076;-71
2022/06/17 11:08:01;;;;;;;3.15;1.55;;;;;;;31.94;27.09;99865.47;5199546;28;20061;-70
2022/06/17 11:10:55;;;;;;;1.80;1.10;;;;;;;31.77;27.36;99857.38;5199354;28;20495;-71
2022/06/17 11:13:46;;;;;;;;;;;;;;;31.97;25.78;99863.03;5197933;28;20115;-71
2022/06/17 11:16:42;;;;;;;1.60;0.90;;;;;;;32.16;24.21;99866.19;5200558;28;20278;-73
2022/06/17 11:19:32;;;;;;;1.23;0.90;;;;;;;31.72;25.50;99855.41;5200530;28;20049;-73
2022/06/17 11:22:30;;;;;;;2.97;0.95;;;;;;;31.92;24.12;99854.78;5199602;28;20092;-71
2022/06/17 11:25:35;;;;;;;6.47;1.15;;;;;;;31.99;25.50;99854.56;5184795;28;20450;-74
2022/06/17 11:28:35;;;;;;;3.80;1.65;;;;;;;32.22;24.26;99859.63;5198608;28;20049;-73
2022/06/17 11:31:25;;;;;;;1.42;1.10;;;;;;;31.61;24.94;99858.31;5184389;28;20072;-72
2022/06/17 11:34:24;;;;;;;3.28;1.02;;;;;;;31.56;25.44;99846.25;5194226;28;20558;-73
2022/06/17 11:37:21;;;;;;;1.73;0.90;;;;;;;31.71;24.33;99842.78;5184616;28;20050;-72
2022/06/17 11:40:21;;;;;;;4.32;1.02;;;;;;;31.47;23.54;99846.97;5185015;28;20597;-74
2022/06/17 11:43:24;;;;;;;3.80;1.10;;;;;;;31.47;23.72;99831.34;5199548;28;20130;-74
2022/06/17 11:46:21;;;;;;;1.75;1.00;;;;;;;30.80;24.68;99821.63;5199196;28;20049;-72
2022/06/17 11:49:16;;;;;;;3.85;1.02;;;;;;;31.05;26.27;99833.94;5203985;28;20050;-71
2022/06/17 11:52:09;;;;;;;;;;;;;;;31.46;24.35;99823.41;5205122;28;20049;-71
2022/06/17 11:55:05;;;;;;;2.72;1.27;;;;;;;31.09;25.85;99826.84;5203936;28;19932;-70
2022/06/17 11:57:55;;;;;;;2.80;1.30;;;;;;;31.24;27.18;99815.22;5204356;28;20123;-70
2022/06/17 12:00:54;;;;;;;3.95;1.20;;;;;;;30.92;28.62;99834.34;5202500;28;20060;-72
2022/06/17 12:03:45;;;;;;;3.38;1.95;;;;;;;31.07;26.33;99827.13;5204575;28;20056;-71
2022/06/17 12:06:46;;;;;;;5.75;1.33;;;;;;;30.63;25.25;99821.69;5186267;28;20081;-72
2022/06/17 12:09:40;;;;;;;3.90;1.40;;;;;;;30.74;27.69;99799.91;5204119;28;20050;-72
2022/06/17 12:12:31;;;;;;;3.65;1.50;;;;;;;31.04;26.37;99813.13;5204200;28;20060;-72
2022/06/17 12:15:37;;;;;;;3.03;1.42;;;;;;;30.41;28.61;99801.69;5190083;28;20045;-71
2022/06/17 12:18:35;;;;;;;2.90;1.35;;;;;;;30.41;27.93;99805.25;5200290;28;20072;-71
2022/06/17 12:22:15;;;;;;;3.78;1.65;;;;;;;30.35;27.48;99795.31;5202833;28;20537;-74
2022/06/17 12:25:23;;;;;;;4.80;1.15;;;;;;;29.78;27.06;99798.34;5188941;28;20119;-70
2022/06/17 12:28:35;;;;;;;3.78;1.80;;;;;;;30.33;26.06;99794.78;5202821;28;20072;-69
2022/06/17 12:31:42;;;;;;;3.85;1.50;;;;;;;29.76;28.12;99797.75;5189305;28;20187;-70
2022/06/17 12:34:58;;;;;;;3.30;1.27;;;;;;;30.29;28.28;99798.25;5204883;28;20045;-70
2022/06/17 12:37:58;;;;;;;2.60;1.40;;;;;;;30.52;26.66;99791.69;5190629;28;20146;-70
2022/06/17 12:40:54;;;;;;;4.15;1.48;;;;;;;30.13;27.87;99781.63;5204608;28;20057;-71
2022/06/17 12:44:14;;;;;;;8.23;1.45;;;;;;;30.46;28.09;99787.22;5189848;28;20053;-69
2022/06/17 12:47:18;;;;;;;5.85;1.40;;;;;;;30.67;27.36;99780.94;5204140;28;20087;-71
2022/06/17 12:54:36;;;;;;;4.15;1.75;;;;;;;30.20;28.48;99778.72;5133943;28;20058;-71
2022/06/17 12:57:48;;;;;;;2.15;1.48;;;;;;;30.00;27.37;99762.84;5171069;28;20666;-70
2022/06/17 13:00:49;;;;;;;2.40;1.48;;;;;;;30.02;28.40;99762.59;5190110;28;20126;-70
2022/06/17 13:04:11;;;;;;;4.10;1.58;;;;;;;30.17;28.55;99768.25;5203738;28;20061;-70
2022/06/17 13:07:28;;;;;;;2.88;1.50;;;;;;;30.00;26.74;99762.00;5203611;28;20055;-70
2022/06/17 13:10:57;;;;;;;3.63;1.42;;;;;;;30.10;27.48;99756.66;5190134;28;20045;-72
2022/06/17 13:14:09;;;;;;;2.22;1.50;;;;;;;30.03;26.80;99756.03;5203732;28;20503;-71
2022/06/17 13:17:29;;;;;;;4.70;1.58;;;;;;;29.97;27.42;99749.69;5188990;28;20423;-70
2022/06/17 13:20:46;;;;;;;2.58;1.40;;;;;;;30.49;28.37;99749.25;5188727;28;20192;-70
2022/06/17 13:23:55;;;;;;;3.17;1.88;;;;;;;30.40;26.97;99743.41;5202929;28;20430;-70
2022/06/17 13:26:45;;;;;;;2.13;1.15;;;;;;;30.05;27.47;99745.66;5203577;28;20051;-70
2022/06/17 13:30:03;;;;;;;4.80;1.23;;;;;;;30.11;26.28;99742.75;5203177;28;20508;-70
2022/06/17 13:33:11;;;;;;;2.60;1.05;;;;;;;29.72;25.36;99734.56;5203271;28;20060;-70
2022/06/17 13:36:10;;;;;;;2.50;1.00;;;;;;;29.72;25.72;99739.19;5202770;28;20048;-71
2022/06/17 13:39:10;;;;;;;3.50;1.10;;;;;;;29.62;25.28;99734.41;5203171;28;20064;-70
2022/06/17 13:42:06;;;;;;;1.60;1.00;;;;;;;29.98;25.54;99742.28;5202531;28;20056;-70
2022/06/17 13:45:21;;;;;;;1.20;0.95;;;;;;;30.11;24.67;99736.44;5202625;28;20045;-70
2022/06/17 13:48:30;;;;;;;3.42;1.00;;;;;;;29.98;25.14;99732.19;5203081;28;20573;-71
2022/06/17 13:51:42;;;;;;;1.65;0.82;;;;;;;30.16;24.40;99714.63;5202866;28;20050;-71
2022/06/17 13:54:51;;;;;;;1.23;0.80;;;;;;;30.04;23.19;99730.34;5196234;28;20056;-70
2022/06/17 13:58:05;;;;;;;3.08;1.08;;;;;;;30.10;23.92;99723.84;5202185;28;20151;-71
2022/06/17 14:01:04;;;;;;;4.97;1.20;;;;;;;30.05;25.92;99726.53;5187313;28;20055;-72
2022/06/17 14:04:17;;;;;;;5.47;1.10;;;;;;;30.48;24.65;99719.41;5202627;28;20068;-70
2022/06/17 14:07:14;;;;;;;;;;;;;;;30.45;24.17;99723.47;5194900;28;20054;-71
2022/06/17 14:10:46;;;;;;;1.25;0.98;;;;;;;30.14;25.09;99719.53;5202713;28;19970;-71
2022/06/17 14:13:36;;;;;;;1.13;0.90;;;;;;;30.40;22.57;99707.03;5178256;28;20065;-71
2022/06/17 14:16:30;;;;;;;1.58;0.85;;;;;;;30.29;24.41;99703.31;5199351;28;20089;-72